createdAt,value
2023-05-13T00:01:27.754Z,59.41
2023-05-13T00:03:55.936Z,60.43
2023-05-13T00:06:24.690Z,59.97
2023-05-13T00:08:54.296Z,60.28
2023-05-13T00:11:24.548Z,60.40
2023-05-13T00:13:53.298Z,60.41
2023-05-13T00:16:24.206Z,61.25
2023-05-13T00:18:52.764Z,61.39
2023-05-13T00:21:21.305Z,61.83
2023-05-13T00:23:49.529Z,61.80
2023-05-13T00:26:18.892Z,61.88
2023-05-13T00:28:49.757Z,62.51
2023-05-13T00:31:19.806Z,62.08
2023-05-13T00:33:51.817Z,62.10
2023-05-13T00:36:19.914Z,61.66
2023-05-13T00:38:47.844Z,61.86
2023-05-13T00:41:16.384Z,62.28
2023-05-13T00:43:46.357Z,61.81
2023-05-13T00:46:15.950Z,61.00
2023-05-13T00:48:44.783Z,60.92
2023-05-13T00:51:13.046Z,60.97
2023-05-13T00:53:43.760Z,61.02
2023-05-13T00:56:12.133Z,61.25
2023-05-13T00:58:39.995Z,61.10
2023-05-13T01:01:19.288Z,61.38
2023-05-13T01:03:54.688Z,61.53
2023-05-13T01:06:29.001Z,61.54
2023-05-13T01:09:04.142Z,61.72
2023-05-13T01:11:38.658Z,61.25
2023-05-13T01:14:12.490Z,60.74
2023-05-13T01:16:47.936Z,60.71
2023-05-13T01:19:32.792Z,60.94
2023-05-13T01:22:03.412Z,61.23
2023-05-13T01:24:31.666Z,60.59
2023-05-13T01:27:00.263Z,61.13
2023-05-13T01:29:29.055Z,61.10
2023-05-13T01:31:58.261Z,61.13
2023-05-13T01:34:27.550Z,60.95
2023-05-13T01:36:56.746Z,60.77
2023-05-13T01:39:26.853Z,61.00
2023-05-13T01:41:55.058Z,61.70
2023-05-13T01:44:24.153Z,61.03
2023-05-13T01:46:53.693Z,60.97
2023-05-13T01:49:22.246Z,60.83
2023-05-13T01:51:50.737Z,61.09
2023-05-13T01:54:23.291Z,61.62
2023-05-13T01:56:53.373Z,61.02
2023-05-13T01:59:21.795Z,61.44
2023-05-13T02:01:50.429Z,61.28
2023-05-13T02:04:19.178Z,61.29
2023-05-13T02:06:47.699Z,60.88
2023-05-13T02:09:16.338Z,61.65
2023-05-13T02:11:44.370Z,61.57
2023-05-13T02:14:17.182Z,61.92
2023-05-13T02:16:45.461Z,62.27
2023-05-13T02:19:13.630Z,61.67
2023-05-13T02:21:43.581Z,62.51
2023-05-13T02:24:11.694Z,62.39
2023-05-13T02:26:41.631Z,62.69
2023-05-13T02:29:10.295Z,63.09
2023-05-13T02:31:41.311Z,62.75
2023-05-13T02:34:09.626Z,62.92
2023-05-13T02:36:38.236Z,62.60
2023-05-13T02:39:06.373Z,62.73
2023-05-13T02:41:34.632Z,62.42
2023-05-13T02:44:03.349Z,62.98
2023-05-13T02:46:31.517Z,63.01
2023-05-13T02:49:00.938Z,63.19
2023-05-13T02:51:29.309Z,63.76
2023-05-13T02:53:57.216Z,63.79
2023-05-13T02:56:25.150Z,63.38
2023-05-13T02:58:53.584Z,62.88
2023-05-13T03:01:21.735Z,62.37
2023-05-13T03:03:49.881Z,62.60
2023-05-13T03:06:19.722Z,62.99
2023-05-13T03:08:47.790Z,63.07
2023-05-13T03:11:15.944Z,64.85
2023-05-13T03:13:44.403Z,64.69
2023-05-13T03:16:12.402Z,65.76
2023-05-13T03:18:40.445Z,68.36
2023-05-13T03:21:09.090Z,66.00
2023-05-13T03:23:38.773Z,66.31
2023-05-13T03:26:06.797Z,66.43
2023-05-13T03:28:35.499Z,66.38
2023-05-13T03:31:03.916Z,67.49
2023-05-13T03:33:32.143Z,69.60
2023-05-13T03:36:01.401Z,71.11
2023-05-13T03:38:29.399Z,69.22
2023-05-13T03:40:58.779Z,69.08
2023-05-13T03:43:27.228Z,68.90
2023-05-13T03:45:55.283Z,68.28
2023-05-13T03:48:23.841Z,68.89
2023-05-13T03:50:53.089Z,70.79
2023-05-13T03:53:21.156Z,70.10
2023-05-13T03:55:49.729Z,69.66
2023-05-13T03:58:19.304Z,69.40
2023-05-13T04:00:47.792Z,68.87
2023-05-13T04:03:17.773Z,67.88
2023-05-13T04:05:47.777Z,68.52
2023-05-13T04:08:16.543Z,68.38
2023-05-13T04:10:44.890Z,68.52
2023-05-13T04:13:13.101Z,67.53
2023-05-13T04:15:42.962Z,68.45
2023-05-13T04:18:10.941Z,68.01
2023-05-13T04:20:39.666Z,67.82
2023-05-13T04:23:08.624Z,67.69
2023-05-13T04:25:39.491Z,65.20
2023-05-13T04:28:07.451Z,63.71
2023-05-13T04:30:36.358Z,62.39
2023-05-13T04:33:06.842Z,62.53
2023-05-13T04:35:34.953Z,61.71
2023-05-13T04:38:04.233Z,59.90
2023-05-13T04:40:32.340Z,59.31
2023-05-13T04:43:00.450Z,58.56
2023-05-13T04:45:28.883Z,59.80
2023-05-13T04:47:58.433Z,59.05
2023-05-13T04:50:28.327Z,56.54
2023-05-13T04:52:57.286Z,57.41
2023-05-13T04:55:27.591Z,54.26
2023-05-13T04:57:55.827Z,55.36
2023-05-13T05:00:24.342Z,53.55
2023-05-13T05:02:52.437Z,49.62
2023-05-13T05:05:20.865Z,47.30
2023-05-13T05:07:51.016Z,47.77
2023-05-13T05:10:19.408Z,48.89
2023-05-13T05:12:47.703Z,50.14
2023-05-13T05:15:17.477Z,48.87
2023-05-13T05:17:46.192Z,48.78
2023-05-13T05:20:14.613Z,47.91
2023-05-13T05:22:43.437Z,47.88
2023-05-13T05:25:13.163Z,49.43
2023-05-13T05:27:41.213Z,47.56
2023-05-13T05:30:12.110Z,48.02
2023-05-13T05:32:40.276Z,47.72
2023-05-13T05:35:09.123Z,49.23
2023-05-13T05:37:37.538Z,48.54
2023-05-13T05:40:06.727Z,47.10
2023-05-13T05:42:36.703Z,46.16
2023-05-13T05:45:05.599Z,45.37
2023-05-13T05:47:34.293Z,45.55
2023-05-13T05:50:02.607Z,45.31
2023-05-13T05:52:30.637Z,47.99
2023-05-13T05:54:59.090Z,46.84
2023-05-13T05:57:27.166Z,47.36
2023-05-13T05:59:57.052Z,49.06
2023-05-13T06:02:25.205Z,47.61
2023-05-13T06:04:53.961Z,48.40
2023-05-13T06:07:21.971Z,49.51
2023-05-13T06:09:50.814Z,50.69
2023-05-13T06:12:19.493Z,49.79
2023-05-13T06:14:48.079Z,49.53
2023-05-13T06:17:17.696Z,50.03
2023-05-13T06:19:47.971Z,51.59
2023-05-13T06:22:16.539Z,50.09
2023-05-13T06:24:44.940Z,50.29
2023-05-13T06:27:13.495Z,47.47
2023-05-13T06:29:41.420Z,50.04
2023-05-13T06:32:09.969Z,49.39
2023-05-13T06:34:40.170Z,48.27
2023-05-13T06:37:08.584Z,47.34
2023-05-13T06:39:37.056Z,46.41
2023-05-13T06:42:05.708Z,47.39
2023-05-13T06:44:33.916Z,49.09
2023-05-13T06:47:03.258Z,50.23
2023-05-13T06:49:31.700Z,48.79
2023-05-13T06:52:01.132Z,49.79
2023-05-13T06:54:29.551Z,49.54
2023-05-13T06:56:57.588Z,50.12
2023-05-13T06:59:26.234Z,49.86
2023-05-13T07:01:54.242Z,49.71
2023-05-13T07:04:22.515Z,49.47
2023-05-13T07:06:52.136Z,49.59
2023-05-13T07:09:21.626Z,48.20
2023-05-13T07:11:49.856Z,50.09
2023-05-13T07:14:18.406Z,48.71
2023-05-13T07:16:46.716Z,47.78
2023-05-13T07:19:14.961Z,47.23
2023-05-13T07:21:43.450Z,46.90
2023-05-13T07:24:11.798Z,46.29
2023-05-13T07:26:41.441Z,46.02
2023-05-13T07:29:09.868Z,43.36
2023-05-13T07:31:38.266Z,43.73
2023-05-13T07:34:07.002Z,43.60
2023-05-13T07:36:35.569Z,43.05
2023-05-13T07:39:03.608Z,43.00
2023-05-13T07:41:31.510Z,41.14
2023-05-13T07:44:01.395Z,39.45
2023-05-13T07:46:29.604Z,39.03
2023-05-13T07:48:57.632Z,39.36
2023-05-13T07:51:26.149Z,38.16
2023-05-13T07:53:54.084Z,38.13
2023-05-13T07:56:22.355Z,39.90
2023-05-13T07:58:51.363Z,37.61
2023-05-13T08:01:20.968Z,38.18
2023-05-13T08:03:49.309Z,33.21
2023-05-13T08:06:17.627Z,29.23
2023-05-13T08:08:45.849Z,30.84
2023-05-13T08:11:15.790Z,28.29
2023-05-13T08:13:44.448Z,29.37
2023-05-13T08:16:13.395Z,27.79
2023-05-13T08:18:43.538Z,29.07
2023-05-13T08:21:12.394Z,31.16
2023-05-13T08:23:44.936Z,32.13
2023-05-13T08:26:15.075Z,33.94
2023-05-13T08:28:43.074Z,32.27
2023-05-13T08:31:12.707Z,36.46
2023-05-13T08:33:43.515Z,37.45
2023-05-13T08:36:11.906Z,38.65
2023-05-13T08:38:39.936Z,38.44
2023-05-13T08:41:08.962Z,35.92
2023-05-13T08:43:39.811Z,37.34
2023-05-13T08:46:12.555Z,37.30
2023-05-13T08:48:43.217Z,36.89
2023-05-13T08:51:12.251Z,38.93
2023-05-13T08:53:41.608Z,39.89
2023-05-13T08:56:10.808Z,38.96
2023-05-13T08:58:39.538Z,39.96
2023-05-13T09:01:08.622Z,37.89
2023-05-13T09:03:37.105Z,37.38
2023-05-13T09:06:07.278Z,39.75
2023-05-13T09:08:36.638Z,39.92
2023-05-13T09:11:05.587Z,37.65
2023-05-13T09:13:33.824Z,40.73
2023-05-13T09:16:03.481Z,38.34
2023-05-13T09:18:33.113Z,38.09
2023-05-13T09:21:23.197Z,37.99
2023-05-13T09:23:52.192Z,38.49
2023-05-13T09:26:29.295Z,38.59
2023-05-13T09:29:23.092Z,38.95
2023-05-13T09:31:53.043Z,38.13
2023-05-13T09:34:29.655Z,39.19
2023-05-13T09:37:04.611Z,40.63
2023-05-13T09:39:35.130Z,38.30
2023-05-13T09:42:05.337Z,37.15
2023-05-13T09:47:03.986Z,40.28
2023-05-13T09:49:33.145Z,40.63
2023-05-13T09:52:02.992Z,41.06
2023-05-13T09:54:37.698Z,41.22
2023-05-13T09:57:06.739Z,43.04
2023-05-13T09:59:35.741Z,41.29
2023-05-13T10:02:07.490Z,39.69
2023-05-13T10:04:36.514Z,41.00
2023-05-13T10:07:07.120Z,42.22
2023-05-13T10:09:38.377Z,40.56
2023-05-13T10:12:09.796Z,41.03
2023-05-13T10:14:38.821Z,42.07
2023-05-13T10:17:07.904Z,41.50
2023-05-13T10:19:36.858Z,41.71
2023-05-13T10:22:08.205Z,43.78
2023-05-13T10:24:38.617Z,43.61
2023-05-13T10:27:08.669Z,42.96
2023-05-13T10:29:40.734Z,44.62
2023-05-13T10:32:11.118Z,46.07
2023-05-13T10:34:41.158Z,47.80
2023-05-13T10:37:24.762Z,49.48
2023-05-13T10:40:12.773Z,50.36
2023-05-13T10:42:48.943Z,48.78
2023-05-13T10:45:18.499Z,49.12
2023-05-13T10:47:53.033Z,47.62
2023-05-13T10:50:27.858Z,50.43
2023-05-13T10:53:00.677Z,50.62
2023-05-13T10:55:29.397Z,50.47
2023-05-13T10:58:12.632Z,51.34
2023-05-13T11:00:41.514Z,50.10
2023-05-13T11:03:15.313Z,48.57
2023-05-13T11:05:46.972Z,50.84
2023-05-13T11:08:41.981Z,46.97
2023-05-13T11:11:28.727Z,47.80
2023-05-13T11:14:04.261Z,45.84
2023-05-13T11:16:32.662Z,45.20
2023-05-13T11:19:03.375Z,45.61
2023-05-13T11:21:33.086Z,45.35
2023-05-13T11:24:05.662Z,44.19
2023-05-13T11:26:47.242Z,46.18
2023-05-13T11:29:15.887Z,44.74
2023-05-13T11:31:46.895Z,44.94
2023-05-13T11:34:17.619Z,45.83
2023-05-13T11:36:48.044Z,43.61
2023-05-13T11:39:20.148Z,44.32
2023-05-13T11:41:49.387Z,44.19
2023-05-13T11:44:20.785Z,43.11
2023-05-13T11:46:54.195Z,45.39
2023-05-13T11:49:33.996Z,46.26
2023-05-13T11:52:07.516Z,47.22
2023-05-13T11:54:46.477Z,45.69
2023-05-13T11:57:22.774Z,47.92
2023-05-13T11:59:52.943Z,47.54
2023-05-13T12:02:26.409Z,45.99
2023-05-13T12:04:55.514Z,44.81
2023-05-13T12:07:24.972Z,44.53
2023-05-13T12:09:57.431Z,46.97
2023-05-13T12:12:27.587Z,46.95
2023-05-13T12:14:57.735Z,49.77
2023-05-13T12:17:26.877Z,50.06
2023-05-13T12:20:10.456Z,49.67
2023-05-13T12:22:50.157Z,49.92
2023-05-13T12:25:39.936Z,48.18
2023-05-13T12:28:10.445Z,50.18
2023-05-13T12:30:40.431Z,50.36
2023-05-13T12:33:17.851Z,46.74
2023-05-13T12:35:48.516Z,45.59
2023-05-13T12:38:18.797Z,43.20
2023-05-13T12:40:49.994Z,43.97
2023-05-13T12:43:20.447Z,43.85
2023-05-13T12:45:54.330Z,45.11
2023-05-13T12:48:26.226Z,43.78
2023-05-13T12:50:54.953Z,44.77
2023-05-13T12:53:23.655Z,49.89
2023-05-13T12:55:53.934Z,48.00
2023-05-13T12:58:23.568Z,47.56
2023-05-13T13:00:52.393Z,46.50
2023-05-13T13:03:24.254Z,44.59
2023-05-13T13:05:53.300Z,48.73
2023-05-13T13:08:22.598Z,48.11
2023-05-13T13:10:53.398Z,48.12
2023-05-13T13:13:21.907Z,46.11
2023-05-13T13:15:50.716Z,46.40
2023-05-13T13:18:19.914Z,47.66
2023-05-13T13:20:48.521Z,47.66
2023-05-13T13:23:17.404Z,48.75
2023-05-13T13:25:46.257Z,48.38
2023-05-13T13:28:16.377Z,48.77
2023-05-13T13:30:47.492Z,47.59
2023-05-13T13:33:17.612Z,46.64
2023-05-13T13:35:47.448Z,47.87
2023-05-13T13:38:16.299Z,48.15
2023-05-13T13:40:45.390Z,46.36
2023-05-13T13:43:15.744Z,45.18
2023-05-13T13:45:44.502Z,45.87
2023-05-13T13:48:15.152Z,45.41
2023-05-13T13:50:45.418Z,44.22
2023-05-13T13:53:19.116Z,44.02
2023-05-13T13:55:48.400Z,42.76
2023-05-13T13:58:19.483Z,42.94
2023-05-13T14:00:49.859Z,43.67
2023-05-13T14:03:19.021Z,43.75
2023-05-13T14:05:48.982Z,43.12
2023-05-13T14:08:17.621Z,43.91
2023-05-13T14:10:49.841Z,43.96
2023-05-13T14:13:20.107Z,45.45
2023-05-13T14:15:48.692Z,45.82
2023-05-13T14:18:17.743Z,43.70
2023-05-13T14:20:47.666Z,43.62
2023-05-13T14:23:16.040Z,44.24
2023-05-13T14:25:44.970Z,44.12
2023-05-13T14:28:16.028Z,45.44
2023-05-13T14:30:46.238Z,43.83
2023-05-13T14:33:15.281Z,44.07
2023-05-13T14:35:44.179Z,45.80
2023-05-13T14:38:13.351Z,44.98
2023-05-13T14:40:41.913Z,45.80
2023-05-13T14:43:10.535Z,45.81
2023-05-13T14:45:39.472Z,44.99
2023-05-13T14:48:09.149Z,45.19
2023-05-13T14:50:39.371Z,45.60
2023-05-13T14:53:09.151Z,45.76
2023-05-13T14:55:37.621Z,45.14
2023-05-13T14:58:08.266Z,46.28
2023-05-13T15:00:38.210Z,46.52
2023-05-13T15:03:09.314Z,45.63
2023-05-13T15:05:38.535Z,45.13
2023-05-13T15:08:07.344Z,44.35
2023-05-13T15:10:36.831Z,45.28
2023-05-13T15:13:05.524Z,46.88
2023-05-13T15:15:34.702Z,45.56
2023-05-13T15:18:03.202Z,46.75
2023-05-13T15:20:33.159Z,45.03
2023-05-13T15:23:01.509Z,45.82
2023-05-13T15:25:30.405Z,46.76
2023-05-13T15:27:58.868Z,46.61
2023-05-13T15:30:27.468Z,46.08
2023-05-13T15:32:56.256Z,45.26
2023-05-13T15:35:25.139Z,46.83
2023-05-13T15:37:55.003Z,47.38
2023-05-13T15:40:24.031Z,48.47
2023-05-13T15:42:52.821Z,47.76
2023-05-13T15:45:21.612Z,49.27
2023-05-13T15:47:50.692Z,48.29
2023-05-13T15:50:19.727Z,48.00
2023-05-13T15:52:48.196Z,49.40
2023-05-13T15:55:18.403Z,52.63
2023-05-13T15:57:48.896Z,52.37
2023-05-13T16:00:20.222Z,50.70
2023-05-13T16:02:48.929Z,51.97
2023-05-13T16:05:20.037Z,51.36
2023-05-13T16:07:48.461Z,49.80
2023-05-13T16:10:19.052Z,51.37
2023-05-13T16:12:47.548Z,52.59
2023-05-13T16:15:15.873Z,52.26
2023-05-13T16:17:44.490Z,51.39
2023-05-13T16:20:15.046Z,52.11
2023-05-13T16:22:43.573Z,51.63
2023-05-13T16:25:12.884Z,52.55
2023-05-13T16:27:43.947Z,52.21
2023-05-13T16:30:13.441Z,53.84
2023-05-13T16:32:42.140Z,53.74
2023-05-13T16:35:13.173Z,54.56
2023-05-13T16:37:41.646Z,53.86
2023-05-13T16:40:11.954Z,54.98
2023-05-13T16:42:41.347Z,53.81
2023-05-13T16:45:11.906Z,54.04
2023-05-13T16:47:40.619Z,54.75
2023-05-13T16:50:10.397Z,52.68
2023-05-13T16:52:39.112Z,51.94
2023-05-13T16:55:09.098Z,51.75
2023-05-13T16:57:38.176Z,52.30
2023-05-13T17:00:08.608Z,52.83
2023-05-13T17:02:39.276Z,52.51
2023-05-13T17:05:08.325Z,53.48
2023-05-13T17:07:36.616Z,53.72
2023-05-13T17:10:06.410Z,54.51
2023-05-13T17:12:35.201Z,53.25
2023-05-13T17:15:04.734Z,53.43
2023-05-13T17:17:33.380Z,53.03
2023-05-13T17:20:03.645Z,52.80
2023-05-13T17:22:31.809Z,52.77
2023-05-13T17:25:00.878Z,53.27
2023-05-13T17:27:28.947Z,54.34
2023-05-13T17:29:57.168Z,53.78
2023-05-13T17:32:26.157Z,53.75
2023-05-13T17:34:54.544Z,53.72
2023-05-13T17:37:24.273Z,52.91
2023-05-13T17:39:53.298Z,53.35
2023-05-13T17:42:21.816Z,52.82
2023-05-13T17:44:50.000Z,53.08
2023-05-13T17:47:18.686Z,53.98
2023-05-13T17:49:47.329Z,53.77
2023-05-13T17:52:15.645Z,53.28
2023-05-13T17:54:45.787Z,53.23
2023-05-13T17:57:14.506Z,52.15
2023-05-13T17:59:43.526Z,51.77
2023-05-13T18:02:12.434Z,52.69
2023-05-13T18:04:41.201Z,52.87
2023-05-13T18:07:09.886Z,53.33
2023-05-13T18:09:38.739Z,52.15
2023-05-13T18:12:09.415Z,53.51
2023-05-13T18:14:39.105Z,54.66
2023-05-13T18:17:07.509Z,54.10
2023-05-13T18:19:38.863Z,55.12
2023-05-13T18:22:09.144Z,55.14
2023-05-13T18:24:38.458Z,55.03
2023-05-13T18:27:09.112Z,55.55
2023-05-13T18:29:38.310Z,55.40
2023-05-13T18:32:07.118Z,57.14
2023-05-13T18:34:36.262Z,56.83
2023-05-13T18:37:04.523Z,56.06
2023-05-13T18:39:32.833Z,55.83
2023-05-13T18:42:01.502Z,57.00
2023-05-13T18:44:31.160Z,57.08
2023-05-13T18:46:59.703Z,55.66
2023-05-13T18:49:29.130Z,57.12
2023-05-13T18:51:57.271Z,56.00
2023-05-13T18:54:29.643Z,56.77
2023-05-13T18:56:57.831Z,56.36
2023-05-13T18:59:26.434Z,57.38
2023-05-13T19:01:56.770Z,56.53
2023-05-13T19:04:25.618Z,56.94
2023-05-13T19:06:54.763Z,57.07
2023-05-13T19:09:23.246Z,57.38
2023-05-13T19:11:52.229Z,57.81
2023-05-13T19:14:21.041Z,57.02
2023-05-13T19:16:50.139Z,56.61
2023-05-13T19:19:19.992Z,56.48
2023-05-13T19:21:49.142Z,57.19
2023-05-13T19:24:17.562Z,56.56
2023-05-13T19:26:45.936Z,57.45
2023-05-13T19:29:14.946Z,57.32
2023-05-13T19:31:43.333Z,56.97
2023-05-13T19:34:12.021Z,58.57
2023-05-13T19:36:42.241Z,57.12
2023-05-13T19:39:11.646Z,57.63
2023-05-13T19:41:40.459Z,59.49
2023-05-13T19:44:09.238Z,59.49
2023-05-13T19:46:37.967Z,60.79
2023-05-13T19:49:07.127Z,60.58
2023-05-13T19:51:35.589Z,59.62
2023-05-13T19:54:07.350Z,59.22
2023-05-13T19:56:35.940Z,60.13
2023-05-13T19:59:04.438Z,60.06
2023-05-13T20:01:33.235Z,59.91
2023-05-13T20:04:01.563Z,58.26
2023-05-13T20:06:31.346Z,59.54
2023-05-13T20:09:01.428Z,60.54
2023-05-13T20:11:31.637Z,60.66
2023-05-13T20:14:00.424Z,59.79
2023-05-13T20:16:29.537Z,59.59
2023-05-13T20:18:58.858Z,61.47
2023-05-13T20:21:27.827Z,62.56
2023-05-13T20:23:57.022Z,62.02
2023-05-13T20:26:28.128Z,61.26
2023-05-13T20:28:59.172Z,61.62
2023-05-13T20:31:27.681Z,61.93
2023-05-13T20:33:56.302Z,63.06
2023-05-13T20:36:25.242Z,62.36
2023-05-13T20:38:54.543Z,63.26
2023-05-13T20:41:23.566Z,64.00
2023-05-13T20:43:53.033Z,63.78
2023-05-13T20:46:23.690Z,63.52
2023-05-13T20:48:52.371Z,63.84
2023-05-13T20:51:22.024Z,63.70
2023-05-13T20:53:53.639Z,63.51
2023-05-13T20:56:22.688Z,64.84
2023-05-13T20:58:51.710Z,65.02
2023-05-13T21:01:20.937Z,65.27
2023-05-13T21:03:51.545Z,64.77
2023-05-13T21:06:22.691Z,64.85
2023-05-13T21:08:51.885Z,63.64
2023-05-13T21:11:25.563Z,64.33
2023-05-13T21:13:54.918Z,63.82
2023-05-13T21:16:23.771Z,64.12
2023-05-13T21:18:53.962Z,63.17
2023-05-13T21:21:22.941Z,63.50
2023-05-13T21:23:51.472Z,62.63
2023-05-13T21:26:20.058Z,63.36
2023-05-13T21:28:49.203Z,63.22
2023-05-13T21:31:18.240Z,62.37
2023-05-13T21:33:46.712Z,62.57
2023-05-13T21:36:17.984Z,62.73
2023-05-13T21:38:47.083Z,62.63
2023-05-13T21:41:16.343Z,63.56
2023-05-13T21:43:46.294Z,62.98
2023-05-13T21:46:15.630Z,63.05
2023-05-13T21:48:44.179Z,64.44
2023-05-13T21:51:13.262Z,63.84
2023-05-13T21:53:44.222Z,63.99
2023-05-13T21:56:12.679Z,64.13
2023-05-13T21:58:41.674Z,64.96
2023-05-13T22:01:10.410Z,64.66
2023-05-13T22:03:39.342Z,65.91
2023-05-13T22:06:09.117Z,65.78
2023-05-13T22:08:37.526Z,65.44
2023-05-13T22:11:08.302Z,68.01
2023-05-13T22:13:37.267Z,66.53
2023-05-13T22:16:06.783Z,67.15
2023-05-13T22:18:36.083Z,67.40
2023-05-13T22:21:06.722Z,67.74
2023-05-13T22:23:36.386Z,67.03
2023-05-13T22:26:07.053Z,68.19
2023-05-13T22:28:35.900Z,68.23
2023-05-13T22:31:04.919Z,68.57
2023-05-13T22:33:33.019Z,68.73
2023-05-13T22:36:01.479Z,69.43
2023-05-13T22:38:30.646Z,68.97
2023-05-13T22:40:59.743Z,69.39
2023-05-13T22:43:29.291Z,69.64
2023-05-13T22:45:58.668Z,70.11
2023-05-13T22:48:27.251Z,70.49
2023-05-13T22:50:57.276Z,70.75
2023-05-13T22:53:27.465Z,70.86
2023-05-13T22:55:56.345Z,71.00
2023-05-13T22:58:24.819Z,70.50
2023-05-13T23:00:55.355Z,71.05
2023-05-13T23:03:23.941Z,71.39
2023-05-13T23:05:52.733Z,71.14
2023-05-13T23:08:21.701Z,71.00
2023-05-13T23:10:50.183Z,70.71
2023-05-13T23:13:19.324Z,70.96
2023-05-13T23:15:53.656Z,71.50
2023-05-13T23:18:24.877Z,73.38
2023-05-13T23:20:56.284Z,73.47
2023-05-13T23:23:24.974Z,73.05
2023-05-13T23:25:55.115Z,73.40
2023-05-13T23:28:25.037Z,74.02
2023-05-13T23:30:56.257Z,74.06
2023-05-13T23:33:27.278Z,74.77
2023-05-13T23:35:57.286Z,75.01
2023-05-13T23:38:26.089Z,75.69
2023-05-13T23:40:54.929Z,74.49
2023-05-13T23:43:24.284Z,74.83
2023-05-13T23:45:53.486Z,75.14
2023-05-13T23:48:22.224Z,76.06
2023-05-13T23:50:52.555Z,75.35
2023-05-13T23:53:21.451Z,75.48
2023-05-13T23:55:50.824Z,76.41
2023-05-13T23:58:20.628Z,77.82
